Apex, NC

2:59 AM EST on February 09, 2016 (GMT -0500)
Abbington | | Change Station
CLOSE
Current Station
Personal Weather Station
Location: Apex, NC
Elevation: 371 ft
Nearby Weather Stations

Elev 371 ft 35.74 °N, 78.90 °W | Updated 3 minutes ago

Overcast
Overcast
--
Feels Like --
N
-
Wind Variable Wind from North
Gusts 916.0 mph

Today
High -- | Low -- °F
--% Chance of Precip.
Yesterday
High -- | Low -- °F
Precip. -- in
Pressure 29.62 in
Visibility 10.0 miles
Clouds Mostly Cloudy 7000 ft
Overcast 8000 ft
Dew Point Not available.
Humidity Not available.
Rainfall 0.00 in
Snow Depth Not available.
7:09 AM 5:50 PM
New Moon, 1% visible
METAR KTTA 090735Z AUTO 00000KT 10SM BKN070 OVC080 03/02 A2962 RMK AO2 T00300022
Pressure 29.62 in
Visibility 10.0 miles
Clouds Mostly Cloudy 7000 ft
Overcast 8000 ft
Dew Point Not available.
Humidity Not available.
Rainfall 0.00 in
Snow Depth Not available.
7:09 AM 5:50 PM
New Moon, 1% visible
METAR KTTA 090735Z AUTO 00000KT 10SM BKN070 OVC080 03/02 A2962 RMK AO2 T00300022

10-Day Weather Forecast

Almanac

Astronomy

Feb. 09, 2016 Rise Set
Actual Time
Civil Twilight
Nautical Twilight
Astronomical Twilight
Moon
Length of Visible Light
Length of Day
Tomorrow will be .
, % of the Moon is Illuminated

Today's Extremes

State Highs State Lows

Community

WunderPhotos

Upload Photos

1,891,571 photos uploaded!

WunderBlog® & News

Nearby

Air Quality

  Air Quality AQ Index Pollutant
Not available.

Snow Depth

Station Depth Elevation

Earthquake Activity

City Distance Mag. Time & Date
Minimum magnitude displayed is 2.5.

Coastal Water Temperatures

Place Temperature

Stations

Nearby Weather Stations

Station Location Temp. Windchill Dew Point Humidity Wind Precip. Elev Updated Type
                   

Watches & Warnings

There are currently no watches in effect.